createdAt,value
2022-11-09T00:00:32.920Z,10.22
2022-11-09T00:02:50.194Z,10.25
2022-11-09T00:05:07.221Z,10.24
2022-11-09T00:07:24.552Z,10.22
2022-11-09T00:09:41.931Z,10.21
2022-11-09T00:11:59.335Z,10.25
2022-11-09T00:14:17.614Z,10.21
2022-11-09T00:16:34.970Z,10.24
2022-11-09T00:18:51.986Z,10.25
2022-11-09T00:21:09.043Z,10.26
2022-11-09T00:23:26.085Z,10.27
2022-11-09T00:25:43.098Z,10.28
2022-11-09T00:28:00.191Z,10.26
2022-11-09T00:30:17.386Z,10.24
2022-11-09T00:32:34.873Z,10.26
2022-11-09T00:34:51.899Z,10.28
2022-11-09T00:37:09.286Z,10.31
2022-11-09T00:39:26.603Z,10.29
2022-11-09T00:41:43.978Z,10.32
2022-11-09T00:44:01.313Z,10.31
2022-11-09T00:46:18.766Z,10.32
2022-11-09T00:48:36.017Z,10.32
2022-11-09T00:50:52.993Z,10.33
2022-11-09T00:53:10.051Z,10.37
2022-11-09T00:55:28.227Z,10.37
2022-11-09T00:57:45.796Z,10.38
2022-11-09T01:00:02.963Z,10.41
2022-11-09T01:02:20.470Z,10.44
2022-11-09T01:04:38.514Z,10.51
2022-11-09T01:06:56.678Z,10.57
2022-11-09T01:09:13.886Z,10.63
2022-11-09T01:11:32.282Z,10.66
2022-11-09T01:13:51.786Z,10.83
2022-11-09T01:16:11.957Z,10.90
2022-11-09T01:18:29.031Z,10.93
2022-11-09T01:20:46.490Z,11.03
2022-11-09T01:23:03.491Z,11.14
2022-11-09T01:25:20.517Z,11.14
2022-11-09T01:27:38.858Z,11.15
2022-11-09T01:29:55.930Z,11.24
2022-11-09T01:32:13.170Z,11.29
2022-11-09T01:34:30.269Z,11.29
2022-11-09T01:36:47.553Z,11.29
2022-11-09T01:39:04.797Z,11.29
2022-11-09T01:41:21.883Z,11.20
2022-11-09T01:43:38.865Z,11.18
2022-11-09T01:45:56.167Z,11.18
2022-11-09T01:48:13.422Z,11.28
2022-11-09T01:50:30.618Z,11.34
2022-11-09T01:52:47.575Z,11.37
2022-11-09T01:55:04.906Z,11.39
2022-11-09T01:57:21.924Z,11.42
2022-11-09T01:59:38.940Z,11.42
2022-11-09T02:01:55.873Z,11.44
2022-11-09T02:04:13.111Z,11.43
2022-11-09T02:06:30.444Z,11.43
2022-11-09T02:08:47.508Z,11.43
2022-11-09T02:11:04.466Z,11.45
2022-11-09T02:13:22.020Z,11.44
2022-11-09T02:15:44.434Z,11.42
2022-11-09T02:18:03.056Z,11.42
2022-11-09T02:20:21.421Z,11.42
2022-11-09T02:22:39.651Z,11.37
2022-11-09T02:24:56.768Z,11.33
2022-11-09T02:27:14.907Z,11.28
2022-11-09T02:29:32.239Z,11.23
2022-11-09T02:31:49.309Z,11.19
2022-11-09T02:34:06.233Z,11.18
2022-11-09T02:36:23.192Z,11.16
2022-11-09T02:38:40.494Z,11.13
2022-11-09T02:40:58.003Z,11.05
2022-11-09T02:43:15.082Z,10.98
2022-11-09T02:45:32.321Z,10.97
2022-11-09T02:47:50.307Z,10.85
2022-11-09T02:50:07.343Z,10.73
2022-11-09T02:52:24.625Z,10.74
2022-11-09T02:54:41.585Z,10.74
2022-11-09T02:56:58.563Z,10.71
2022-11-09T02:59:16.485Z,10.71
2022-11-09T03:01:35.060Z,10.70
2022-11-09T03:03:52.083Z,10.66
2022-11-09T03:06:09.214Z,10.65
2022-11-09T03:08:27.258Z,10.62
2022-11-09T03:10:44.301Z,10.60
2022-11-09T03:13:01.566Z,10.57
2022-11-09T03:15:18.637Z,10.59
2022-11-09T03:17:36.576Z,10.58
2022-11-09T03:19:53.877Z,10.58
2022-11-09T03:22:11.914Z,10.61
2022-11-09T03:24:28.928Z,10.59
2022-11-09T03:26:46.068Z,10.61
2022-11-09T03:29:03.311Z,10.60
2022-11-09T03:31:21.615Z,10.60
2022-11-09T03:33:38.820Z,10.63
2022-11-09T03:35:55.777Z,10.64
2022-11-09T03:38:13.704Z,10.68
2022-11-09T03:40:30.594Z,10.69
2022-11-09T03:42:48.876Z,10.70
2022-11-09T03:45:06.207Z,10.68
2022-11-09T03:47:23.438Z,10.69
2022-11-09T03:49:40.768Z,10.69
2022-11-09T03:51:57.842Z,10.71
2022-11-09T03:54:14.765Z,10.72
2022-11-09T03:56:31.841Z,10.71
2022-11-09T03:58:49.120Z,10.73
2022-11-09T04:01:06.142Z,10.73
2022-11-09T04:03:23.258Z,10.76
2022-11-09T04:05:40.644Z,10.80
2022-11-09T04:07:57.981Z,10.79
2022-11-09T04:10:15.102Z,10.79
2022-11-09T04:12:32.125Z,10.80
2022-11-09T04:14:50.195Z,10.82
2022-11-09T04:17:07.259Z,10.87
2022-11-09T04:19:26.586Z,10.89
2022-11-09T04:21:44.991Z,10.91
2022-11-09T04:24:02.077Z,10.92
2022-11-09T04:26:20.192Z,10.91
2022-11-09T04:28:37.135Z,10.92
2022-11-09T04:30:54.459Z,10.93
2022-11-09T04:33:12.582Z,10.91
2022-11-09T04:35:29.663Z,10.93
2022-11-09T04:37:46.979Z,10.93
2022-11-09T04:40:04.011Z,10.91
2022-11-09T04:42:21.511Z,10.92
2022-11-09T04:44:38.771Z,10.91
2022-11-09T04:46:55.974Z,10.90
2022-11-09T04:49:13.299Z,10.88
2022-11-09T04:51:30.234Z,10.86
2022-11-09T04:53:47.609Z,10.87
2022-11-09T04:56:04.851Z,10.88
2022-11-09T04:58:24.957Z,10.90
2022-11-09T05:00:42.247Z,10.97
2022-11-09T05:02:59.522Z,10.96
2022-11-09T05:05:17.797Z,10.96
2022-11-09T05:07:34.796Z,10.97
2022-11-09T05:09:51.990Z,10.97
2022-11-09T05:12:10.008Z,10.93
2022-11-09T05:14:27.008Z,10.88
2022-11-09T05:16:44.151Z,10.89
2022-11-09T05:19:01.124Z,10.85
2022-11-09T05:21:18.115Z,10.85
2022-11-09T05:23:35.156Z,10.91
2022-11-09T05:25:52.097Z,10.91
2022-11-09T05:28:09.791Z,10.91
2022-11-09T05:30:26.890Z,10.92
2022-11-09T05:32:44.163Z,10.90
2022-11-09T05:35:01.166Z,10.90
2022-11-09T05:37:18.425Z,10.90
2022-11-09T05:39:35.675Z,10.90
2022-11-09T05:41:52.687Z,10.88
2022-11-09T05:44:10.090Z,10.87
2022-11-09T05:46:27.068Z,10.88
2022-11-09T05:48:45.288Z,10.90
2022-11-09T05:51:02.300Z,10.93
2022-11-09T05:53:19.533Z,10.96
2022-11-09T05:55:36.879Z,10.96
2022-11-09T05:57:54.881Z,10.99
2022-11-09T06:00:12.160Z,11.02
2022-11-09T06:02:29.100Z,11.01
2022-11-09T06:04:46.116Z,11.00
2022-11-09T06:07:03.452Z,11.00
2022-11-09T06:09:20.786Z,11.00
2022-11-09T06:11:38.023Z,11.02
2022-11-09T06:13:54.926Z,11.06
2022-11-09T06:16:12.578Z,11.10
2022-11-09T06:18:30.447Z,11.11
2022-11-09T06:20:47.639Z,11.12
2022-11-09T06:23:04.929Z,11.15
2022-11-09T06:25:21.984Z,11.15
2022-11-09T06:27:38.974Z,11.15
2022-11-09T06:29:55.874Z,11.18
2022-11-09T06:32:12.906Z,11.20
2022-11-09T06:34:29.904Z,11.20
2022-11-09T06:36:46.892Z,11.18
2022-11-09T06:39:03.891Z,11.22
2022-11-09T06:41:20.904Z,11.20
2022-11-09T06:43:37.878Z,11.21
2022-11-09T06:45:54.886Z,11.23
2022-11-09T06:48:12.852Z,11.27
2022-11-09T06:50:30.061Z,11.24
2022-11-09T06:52:48.077Z,11.24
2022-11-09T06:55:05.069Z,11.24
2022-11-09T06:57:22.067Z,11.29
2022-11-09T06:59:39.074Z,11.29
2022-11-09T07:02:01.074Z,11.27
2022-11-09T07:04:18.469Z,11.30
2022-11-09T07:06:35.447Z,11.32
2022-11-09T07:08:53.378Z,11.34
2022-11-09T07:11:10.388Z,11.37
2022-11-09T07:13:28.597Z,11.37
2022-11-09T07:15:45.565Z,11.38
2022-11-09T07:18:03.699Z,11.39
2022-11-09T07:20:21.904Z,11.39
2022-11-09T07:22:38.852Z,11.44
2022-11-09T07:24:55.747Z,11.46
2022-11-09T07:27:12.748Z,11.47
2022-11-09T07:29:29.949Z,11.48
2022-11-09T07:31:47.937Z,11.43
2022-11-09T07:34:04.905Z,11.40
2022-11-09T07:36:22.019Z,11.40
2022-11-09T07:38:39.299Z,11.43
2022-11-09T07:40:56.273Z,11.49
2022-11-09T07:43:13.586Z,11.59
2022-11-09T07:45:30.614Z,11.64
2022-11-09T07:47:47.604Z,11.65
2022-11-09T07:50:04.692Z,11.68
2022-11-09T07:52:22.064Z,11.72
2022-11-09T07:54:40.204Z,11.75
2022-11-09T07:56:57.587Z,11.78
2022-11-09T07:59:15.603Z,11.83
2022-11-09T08:01:32.622Z,11.88
2022-11-09T08:03:49.925Z,11.95
2022-11-09T08:06:14.244Z,12.14
2022-11-09T08:08:34.539Z,12.15
2022-11-09T08:10:51.500Z,12.25
2022-11-09T08:13:08.808Z,12.34
2022-11-09T08:15:26.028Z,12.40
2022-11-09T08:17:43.536Z,12.48
2022-11-09T08:20:00.935Z,12.54
2022-11-09T08:22:18.251Z,12.58
2022-11-09T08:24:36.142Z,12.62
2022-11-09T08:26:53.008Z,12.66
2022-11-09T08:29:10.132Z,12.76
2022-11-09T08:31:27.507Z,12.80
2022-11-09T08:33:44.518Z,12.85
2022-11-09T08:36:01.535Z,12.91
2022-11-09T08:38:18.969Z,12.91
2022-11-09T08:40:36.500Z,12.96
2022-11-09T08:42:53.453Z,12.97
2022-11-09T08:45:10.476Z,12.99
2022-11-09T08:47:27.418Z,12.96
2022-11-09T08:49:45.627Z,13.07
2022-11-09T08:52:02.845Z,13.04
2022-11-09T08:54:20.106Z,13.06
2022-11-09T08:56:37.133Z,13.08
2022-11-09T08:58:54.193Z,13.09
2022-11-09T09:01:16.727Z,13.14
2022-11-09T09:03:34.349Z,13.11
2022-11-09T09:05:51.602Z,13.07
2022-11-09T09:08:08.423Z,13.05
2022-11-09T09:10:25.460Z,13.00
2022-11-09T09:12:42.491Z,13.04
2022-11-09T09:14:59.436Z,13.08
2022-11-09T09:17:17.734Z,13.13
2022-11-09T09:19:35.803Z,13.16
2022-11-09T09:21:52.862Z,13.25
2022-11-09T09:24:09.794Z,13.30
2022-11-09T09:26:27.585Z,13.35
2022-11-09T09:28:44.614Z,13.44
2022-11-09T09:31:01.885Z,13.49
2022-11-09T09:33:19.127Z,13.52
2022-11-09T09:35:36.390Z,13.52
2022-11-09T09:37:53.651Z,13.50
2022-11-09T09:40:10.532Z,13.56
2022-11-09T09:42:27.534Z,13.60
2022-11-09T09:44:44.399Z,13.64
2022-11-09T09:47:01.371Z,13.66
2022-11-09T09:49:18.284Z,13.60
2022-11-09T09:51:35.314Z,13.61
2022-11-09T09:53:52.288Z,13.65
2022-11-09T09:56:09.523Z,13.64
2022-11-09T09:58:26.511Z,13.71
2022-11-09T10:00:43.466Z,13.77
2022-11-09T10:03:00.679Z,13.79
2022-11-09T10:05:17.719Z,13.90
2022-11-09T10:07:34.668Z,13.92
2022-11-09T10:09:51.705Z,14.00
2022-11-09T10:12:08.688Z,14.02
2022-11-09T10:14:25.974Z,14.15
2022-11-09T10:16:42.917Z,14.07
2022-11-09T10:19:00.905Z,14.07
2022-11-09T10:21:19.163Z,14.13
2022-11-09T10:23:36.059Z,14.39
2022-11-09T10:26:04.493Z,14.55
2022-11-09T10:28:23.576Z,14.64
2022-11-09T10:30:42.628Z,14.71
2022-11-09T10:32:59.593Z,14.76
2022-11-09T10:35:16.530Z,14.95
2022-11-09T10:37:33.896Z,14.82
2022-11-09T10:39:50.802Z,14.91
2022-11-09T10:42:08.059Z,14.89
2022-11-09T10:44:25.141Z,14.95
2022-11-09T10:46:42.333Z,15.00
2022-11-09T10:48:59.333Z,15.03
2022-11-09T10:51:16.372Z,15.03
2022-11-09T10:53:33.813Z,15.10
2022-11-09T10:55:50.864Z,15.10
2022-11-09T10:58:07.862Z,15.14
2022-11-09T11:00:26.118Z,15.16
2022-11-09T11:02:43.394Z,15.16
2022-11-09T11:05:00.427Z,15.25
2022-11-09T11:07:20.971Z,15.24
2022-11-09T11:09:38.764Z,15.31
2022-11-09T11:11:56.021Z,15.27
2022-11-09T11:14:15.908Z,15.26
2022-11-09T11:16:35.591Z,15.37
2022-11-09T11:18:52.630Z,15.34
2022-11-09T11:21:11.209Z,15.27
2022-11-09T11:23:30.875Z,15.32
2022-11-09T11:25:47.845Z,15.22
2022-11-09T11:28:04.810Z,15.20
2022-11-09T11:30:22.956Z,15.17
2022-11-09T11:32:42.101Z,15.19
2022-11-09T11:35:01.985Z,15.26
2022-11-09T11:37:20.250Z,15.17
2022-11-09T11:39:37.577Z,15.18
2022-11-09T11:41:54.577Z,15.06
2022-11-09T11:44:11.507Z,15.10
2022-11-09T11:46:28.576Z,14.93
2022-11-09T11:48:45.828Z,15.04
2022-11-09T11:51:02.853Z,14.81
2022-11-09T11:53:20.287Z,14.60
2022-11-09T11:55:37.727Z,14.51
2022-11-09T11:57:54.806Z,14.49
2022-11-09T12:00:11.806Z,14.52
2022-11-09T12:02:29.100Z,14.37
2022-11-09T12:04:46.228Z,14.30
2022-11-09T12:07:03.266Z,14.34
2022-11-09T12:09:20.552Z,14.23
2022-11-09T12:11:37.608Z,14.13
2022-11-09T12:13:54.534Z,14.09
2022-11-09T12:16:12.711Z,14.14
2022-11-09T12:18:29.669Z,14.17
2022-11-09T12:20:46.886Z,14.11
2022-11-09T12:23:03.962Z,14.09
2022-11-09T12:25:20.965Z,14.11
2022-11-09T12:27:37.894Z,14.14
2022-11-09T12:29:54.926Z,14.02
2022-11-09T12:32:13.464Z,13.98
2022-11-09T12:34:30.418Z,13.89
2022-11-09T12:36:48.236Z,13.84
2022-11-09T12:39:05.492Z,13.79
2022-11-09T12:41:22.534Z,13.71
2022-11-09T12:43:39.445Z,13.66
2022-11-09T12:45:56.783Z,13.62
2022-11-09T12:48:13.748Z,13.58
2022-11-09T12:50:31.072Z,13.54
2022-11-09T12:52:48.281Z,13.51
2022-11-09T12:55:05.468Z,13.47
2022-11-09T12:57:22.710Z,13.42
2022-11-09T12:59:39.739Z,13.43
2022-11-09T13:01:56.704Z,13.40
2022-11-09T13:04:16.649Z,13.35
2022-11-09T13:06:33.732Z,13.34
2022-11-09T13:08:51.059Z,13.33
2022-11-09T13:11:07.956Z,13.32
2022-11-09T13:13:25.075Z,13.35
2022-11-09T13:15:42.146Z,13.31
2022-11-09T13:17:59.182Z,13.32
2022-11-09T13:20:40.599Z,13.34
2022-11-09T13:22:53.075Z,13.34
2022-11-09T13:25:10.004Z,13.34
2022-11-09T13:27:27.139Z,13.36
2022-11-09T13:29:44.091Z,13.38
2022-11-09T13:32:02.053Z,13.39
2022-11-09T13:34:19.048Z,13.45
2022-11-09T13:36:35.982Z,13.47
2022-11-09T13:38:53.043Z,13.44
2022-11-09T13:41:09.999Z,13.39
2022-11-09T13:43:26.991Z,13.37
2022-11-09T13:45:45.225Z,13.38
2022-11-09T13:48:02.163Z,13.43
2022-11-09T13:50:19.161Z,13.45
2022-11-09T13:52:36.142Z,13.43
2022-11-09T13:54:53.011Z,13.44
2022-11-09T13:57:10.706Z,13.50
2022-11-09T13:59:27.892Z,13.44
2022-11-09T14:01:45.943Z,13.43
2022-11-09T14:04:03.252Z,13.42
2022-11-09T14:06:20.521Z,13.40
2022-11-09T14:08:40.663Z,13.40
2022-11-09T14:10:58.152Z,13.39
2022-11-09T14:13:15.177Z,13.37
2022-11-09T14:15:32.203Z,13.37
2022-11-09T14:17:50.135Z,13.34
2022-11-09T14:20:11.710Z,13.36
2022-11-09T14:22:29.140Z,13.29
2022-11-09T14:24:46.078Z,13.24
2022-11-09T14:27:03.012Z,13.21
2022-11-09T14:29:20.334Z,13.21
2022-11-09T14:31:40.322Z,13.20
2022-11-09T14:34:01.062Z,13.18
2022-11-09T14:36:18.078Z,13.24
2022-11-09T14:38:35.322Z,13.22
2022-11-09T14:40:52.447Z,13.17
2022-11-09T14:43:09.769Z,13.17
2022-11-09T14:45:27.047Z,13.14
2022-11-09T14:47:45.141Z,13.10
2022-11-09T14:50:02.112Z,13.07
2022-11-09T14:52:19.060Z,13.11
2022-11-09T14:54:35.992Z,13.07
2022-11-09T14:56:53.971Z,13.04
2022-11-09T14:59:10.855Z,12.99
2022-11-09T15:01:27.854Z,12.96
2022-11-09T15:03:45.106Z,12.96
2022-11-09T15:06:01.982Z,12.93
2022-11-09T15:08:19.370Z,12.92
2022-11-09T15:10:36.577Z,12.88
2022-11-09T15:12:53.626Z,12.87
2022-11-09T15:15:10.647Z,12.86
2022-11-09T15:17:27.582Z,12.79
2022-11-09T15:19:45.788Z,12.78
2022-11-09T15:22:02.805Z,12.73
2022-11-09T15:24:19.752Z,12.68
2022-11-09T15:26:36.675Z,12.63
2022-11-09T15:28:53.621Z,12.59
2022-11-09T15:31:11.139Z,12.56
2022-11-09T15:33:28.468Z,12.53
2022-11-09T15:35:45.877Z,12.47
2022-11-09T15:38:03.129Z,12.41
2022-11-09T15:40:20.438Z,12.38
2022-11-09T15:42:40.041Z,12.33
2022-11-09T15:45:00.660Z,12.27
2022-11-09T15:47:17.630Z,12.23
2022-11-09T15:49:35.554Z,12.19
2022-11-09T15:51:52.803Z,12.07
2022-11-09T15:54:10.103Z,12.01
2022-11-09T15:56:27.515Z,12.01
2022-11-09T15:58:44.485Z,11.98
2022-11-09T16:01:01.861Z,11.95
2022-11-09T16:03:19.116Z,11.89
2022-11-09T16:05:36.160Z,11.82
2022-11-09T16:07:53.096Z,11.80
2022-11-09T16:10:11.040Z,11.74
2022-11-09T16:12:28.030Z,11.69
2022-11-09T16:14:44.966Z,11.68
2022-11-09T16:17:02.003Z,11.61
2022-11-09T16:19:19.063Z,11.61
2022-11-09T16:21:36.076Z,11.58
2022-11-09T16:23:58.102Z,11.53
2022-11-09T16:26:15.643Z,11.47
2022-11-09T16:28:32.628Z,11.45
2022-11-09T16:30:50.884Z,11.41
2022-11-09T16:33:07.955Z,11.38
2022-11-09T16:35:27.561Z,11.32
2022-11-09T16:37:45.474Z,11.30
2022-11-09T16:40:02.534Z,11.28
2022-11-09T16:42:20.408Z,11.24
2022-11-09T16:44:37.765Z,11.19
2022-11-09T16:46:55.076Z,11.15
2022-11-09T16:49:13.364Z,11.12
2022-11-09T16:51:30.415Z,11.09
2022-11-09T16:53:47.429Z,11.09
2022-11-09T16:56:04.783Z,11.04
2022-11-09T16:58:23.470Z,11.01
2022-11-09T17:01:04.362Z,10.96
2022-11-09T17:03:17.451Z,10.93
2022-11-09T17:05:36.047Z,10.88
2022-11-09T17:07:53.373Z,10.88
2022-11-09T17:10:10.691Z,10.87
2022-11-09T17:12:27.656Z,10.83
2022-11-09T17:14:45.016Z,10.82
2022-11-09T17:17:02.639Z,10.81
2022-11-09T17:19:19.651Z,10.77
2022-11-09T17:21:36.953Z,10.77
2022-11-09T17:23:54.216Z,10.74
2022-11-09T17:26:12.455Z,10.80
2022-11-09T17:28:29.570Z,10.73
2022-11-09T17:30:46.868Z,10.69
2022-11-09T17:33:04.067Z,10.65
2022-11-09T17:35:21.331Z,10.64
2022-11-09T17:37:38.289Z,10.61
2022-11-09T17:39:55.575Z,10.60
2022-11-09T17:42:12.932Z,10.58
2022-11-09T17:44:30.881Z,10.56
2022-11-09T17:46:48.215Z,10.52
2022-11-09T17:49:09.727Z,10.48
2022-11-09T17:51:27.365Z,10.46
2022-11-09T17:53:44.762Z,10.43
2022-11-09T17:56:01.663Z,10.40
2022-11-09T17:58:20.200Z,10.36
2022-11-09T18:00:37.566Z,10.30
2022-11-09T18:02:55.674Z,10.25
2022-11-09T18:05:13.973Z,10.22
2022-11-09T18:07:31.185Z,10.18
2022-11-09T18:09:48.162Z,10.12
2022-11-09T18:12:05.425Z,10.08
2022-11-09T18:14:22.420Z,10.09
2022-11-09T18:16:39.364Z,10.06
2022-11-09T18:18:57.417Z,10.02
2022-11-09T18:21:14.681Z,9.98
2022-11-09T18:23:32.746Z,9.89
2022-11-09T18:25:49.677Z,9.85
2022-11-09T18:28:07.543Z,9.82
2022-11-09T18:30:24.476Z,9.79
2022-11-09T18:32:41.418Z,9.74
2022-11-09T18:34:58.764Z,9.70
2022-11-09T18:37:15.730Z,9.71
2022-11-09T18:39:32.989Z,9.67
2022-11-09T18:41:50.202Z,9.63
2022-11-09T18:44:07.192Z,9.59
2022-11-09T18:46:24.129Z,9.53
2022-11-09T18:48:41.360Z,9.51
2022-11-09T18:50:58.465Z,9.51
2022-11-09T18:53:15.790Z,9.46
2022-11-09T18:55:33.053Z,9.45
2022-11-09T18:57:51.341Z,9.43
2022-11-09T19:00:08.347Z,9.38
2022-11-09T19:02:25.408Z,9.36
2022-11-09T19:04:42.677Z,9.34
2022-11-09T19:07:00.048Z,9.32
2022-11-09T19:09:17.302Z,9.30
2022-11-09T19:11:34.651Z,9.27
2022-11-09T19:13:51.573Z,9.23
2022-11-09T19:16:09.614Z,9.22
2022-11-09T19:18:27.035Z,9.22
2022-11-09T19:20:44.004Z,9.20
2022-11-09T19:23:01.241Z,9.17
2022-11-09T19:25:18.507Z,9.16
2022-11-09T19:27:36.372Z,9.15
2022-11-09T19:29:53.347Z,9.11
2022-11-09T19:32:10.515Z,9.08
2022-11-09T19:34:27.642Z,9.04
2022-11-09T19:36:44.722Z,9.02
2022-11-09T19:39:01.787Z,8.98
2022-11-09T19:41:19.077Z,8.95
2022-11-09T19:43:36.356Z,8.90
2022-11-09T19:45:53.290Z,8.86
2022-11-09T19:48:10.555Z,8.80
2022-11-09T19:50:27.520Z,8.80
2022-11-09T19:52:44.807Z,8.78
2022-11-09T19:55:02.108Z,8.73
2022-11-09T19:57:19.319Z,8.70
2022-11-09T19:59:36.582Z,8.65
2022-11-09T20:01:53.864Z,8.63
2022-11-09T20:04:10.810Z,8.58
2022-11-09T20:06:27.748Z,8.58
2022-11-09T20:08:44.809Z,8.54
2022-11-09T20:11:02.559Z,8.52
2022-11-09T20:13:19.514Z,8.46
2022-11-09T20:15:36.784Z,8.44
2022-11-09T20:17:53.790Z,8.42
2022-11-09T20:20:10.902Z,8.40
2022-11-09T20:22:28.190Z,8.35
2022-11-09T20:24:45.203Z,8.30
2022-11-09T20:27:02.540Z,8.30
2022-11-09T20:29:19.578Z,8.27
2022-11-09T20:31:36.531Z,8.30
2022-11-09T20:33:53.868Z,8.26
2022-11-09T20:36:10.904Z,8.19
2022-11-09T20:38:29.252Z,8.12
2022-11-09T20:40:46.504Z,8.08
2022-11-09T20:43:04.423Z,8.09
2022-11-09T20:45:21.373Z,8.05
2022-11-09T20:48:03.312Z,8.00
2022-11-09T20:50:15.616Z,7.95
2022-11-09T20:52:32.864Z,7.92
2022-11-09T20:54:50.920Z,7.91
2022-11-09T20:57:07.950Z,7.89
2022-11-09T20:59:24.888Z,7.85
2022-11-09T21:01:42.236Z,7.82
2022-11-09T21:03:59.498Z,7.80
2022-11-09T21:06:16.485Z,7.77
2022-11-09T21:08:33.712Z,7.75
2022-11-09T21:10:51.857Z,7.75
2022-11-09T21:13:09.081Z,7.70
2022-11-09T21:15:26.442Z,7.67
2022-11-09T21:17:43.401Z,7.65
2022-11-09T21:20:00.423Z,7.67
2022-11-09T21:22:17.733Z,7.62
2022-11-09T21:24:34.769Z,7.55
2022-11-09T21:26:53.028Z,7.53
2022-11-09T21:29:10.054Z,7.52
2022-11-09T21:31:28.007Z,7.48
2022-11-09T21:33:46.020Z,7.48
2022-11-09T21:36:03.210Z,7.44
2022-11-09T21:38:21.699Z,7.44
2022-11-09T21:40:40.173Z,7.40
2022-11-09T21:42:57.450Z,7.40
2022-11-09T21:45:14.710Z,7.36
2022-11-09T21:47:31.994Z,7.31
2022-11-09T21:49:49.007Z,7.27
2022-11-09T21:52:07.180Z,7.28
2022-11-09T21:54:25.488Z,7.24
2022-11-09T21:56:42.407Z,7.20
2022-11-09T21:58:59.690Z,7.17
2022-11-09T22:01:16.644Z,7.11
2022-11-09T22:03:33.838Z,7.09
2022-11-09T22:05:51.790Z,7.09
2022-11-09T22:08:08.779Z,7.07
2022-11-09T22:10:26.121Z,7.10
2022-11-09T22:12:43.087Z,7.06
2022-11-09T22:15:00.498Z,6.98
2022-11-09T22:17:17.533Z,6.94
2022-11-09T22:19:34.574Z,6.90
2022-11-09T22:21:51.512Z,6.89
2022-11-09T22:24:08.547Z,6.88
2022-11-09T22:26:26.800Z,6.91
2022-11-09T22:28:43.829Z,6.85
2022-11-09T22:31:00.876Z,6.84
2022-11-09T22:33:21.764Z,6.83
2022-11-09T22:35:41.651Z,6.77
2022-11-09T22:37:59.686Z,6.72
2022-11-09T22:40:16.739Z,6.73
2022-11-09T22:42:34.480Z,6.70
2022-11-09T22:44:51.528Z,6.71
2022-11-09T22:47:08.749Z,6.66
2022-11-09T22:49:26.481Z,6.66
2022-11-09T22:51:43.414Z,6.67
2022-11-09T22:54:00.431Z,6.64
2022-11-09T22:56:17.486Z,6.61
2022-11-09T22:58:34.359Z,6.59
2022-11-09T23:00:51.376Z,6.56
2022-11-09T23:03:08.239Z,6.54
2022-11-09T23:05:25.455Z,6.52
2022-11-09T23:07:42.650Z,6.49
2022-11-09T23:10:00.998Z,6.47
2022-11-09T23:12:18.126Z,6.46
2022-11-09T23:14:35.417Z,6.41
2022-11-09T23:16:52.511Z,6.39
2022-11-09T23:19:09.407Z,6.36
2022-11-09T23:21:26.732Z,6.34
2022-11-09T23:23:43.748Z,6.33
2022-11-09T23:26:00.717Z,6.32
2022-11-09T23:28:18.017Z,6.26
2022-11-09T23:30:35.475Z,6.25
2022-11-09T23:32:53.846Z,6.25
2022-11-09T23:35:11.243Z,6.21
2022-11-09T23:37:28.181Z,6.20
2022-11-09T23:39:45.297Z,6.19
2022-11-09T23:42:03.557Z,6.12
2022-11-09T23:44:20.486Z,6.11
2022-11-09T23:46:37.836Z,6.09
2022-11-09T23:48:54.894Z,6.04
2022-11-09T23:51:11.773Z,6.02
2022-11-09T23:53:29.265Z,5.99
2022-11-09T23:55:46.502Z,5.96
2022-11-09T23:58:03.824Z,5.95
